sensor_id;sensor_type;location;lat;lon;timestamp;temperature;humidity
13336;DHT22;6737;51.480;11.962;2023-12-20T00:01:27;5.50;99.90
13336;DHT22;6737;51.480;11.962;2023-12-20T00:03:52;5.50;99.90
13336;DHT22;6737;51.480;11.962;2023-12-20T00:06:18;5.40;99.90
13336;DHT22;6737;51.480;11.962;2023-12-20T00:08:44;5.50;99.90
13336;DHT22;6737;51.480;11.962;2023-12-20T00:11:10;5.50;99.90
13336;DHT22;6737;51.480;11.962;2023-12-20T00:13:35;5.50;99.90
13336;DHT22;6737;51.480;11.962;2023-12-20T00:16:01;5.40;99.90
13336;DHT22;6737;51.480;11.962;2023-12-20T00:18:27;5.40;99.90
13336;DHT22;6737;51.480;11.962;2023-12-20T00:20:53;5.40;99.90
13336;DHT22;6737;51.480;11.962;2023-12-20T00:23:18;5.40;99.90
13336;DHT22;6737;51.480;11.962;2023-12-20T00:25:44;5.40;99.90
13336;DHT22;6737;51.480;11.962;2023-12-20T00:28:10;5.40;99.90
13336;DHT22;6737;51.480;11.962;2023-12-20T00:30:36;5.40;99.90
13336;DHT22;6737;51.480;11.962;2023-12-20T00:33:01;5.40;99.90
13336;DHT22;6737;51.480;11.962;2023-12-20T00:35:28;5.40;99.90
13336;DHT22;6737;51.480;11.962;2023-12-20T00:37:53;5.40;99.90
13336;DHT22;6737;51.480;11.962;2023-12-20T00:40:19;5.40;99.90
13336;DHT22;6737;51.480;11.962;2023-12-20T00:42:46;5.40;99.90
13336;DHT22;6737;51.480;11.962;2023-12-20T00:45:12;5.40;99.90
13336;DHT22;6737;51.480;11.962;2023-12-20T00:47:38;5.40;99.90
13336;DHT22;6737;51.480;11.962;2023-12-20T00:50:04;5.40;99.90
13336;DHT22;6737;51.480;11.962;2023-12-20T00:52:30;5.40;99.90
13336;DHT22;6737;51.480;11.962;2023-12-20T00:54:56;5.40;99.90
13336;DHT22;6737;51.480;11.962;2023-12-20T00:57:22;5.40;99.90
13336;DHT22;6737;51.480;11.962;2023-12-20T00:59:47;5.40;99.90
13336;DHT22;6737;51.480;11.962;2023-12-20T01:02:13;5.40;99.90
13336;DHT22;6737;51.480;11.962;2023-12-20T01:04:39;5.40;99.90
13336;DHT22;6737;51.480;11.962;2023-12-20T01:07:05;5.40;99.90
13336;DHT22;6737;51.480;11.962;2023-12-20T01:09:30;5.40;99.90
13336;DHT22;6737;51.480;11.962;2023-12-20T01:11:56;5.40;99.90
13336;DHT22;6737;51.480;11.962;2023-12-20T01:14:22;5.40;99.90
13336;DHT22;6737;51.480;11.962;2023-12-20T01:16:48;5.40;99.90
13336;DHT22;6737;51.480;11.962;2023-12-20T01:19:13;5.30;99.90
13336;DHT22;6737;51.480;11.962;2023-12-20T01:21:40;5.40;99.90
13336;DHT22;6737;51.480;11.962;2023-12-20T01:24:06;5.40;99.90
13336;DHT22;6737;51.480;11.962;2023-12-20T01:26:32;5.40;99.90
13336;DHT22;6737;51.480;11.962;2023-12-20T01:28:57;5.40;99.90
13336;DHT22;6737;51.480;11.962;2023-12-20T01:31:23;5.40;99.90
13336;DHT22;6737;51.480;11.962;2023-12-20T01:33:49;5.40;99.90
13336;DHT22;6737;51.480;11.962;2023-12-20T01:36:15;5.40;99.90
13336;DHT22;6737;51.480;11.962;2023-12-20T01:38:41;5.40;99.90
13336;DHT22;6737;51.480;11.962;2023-12-20T01:41:06;5.40;99.90
13336;DHT22;6737;51.480;11.962;2023-12-20T01:43:32;5.30;99.90
13336;DHT22;6737;51.480;11.962;2023-12-20T01:45:58;5.40;99.90
13336;DHT22;6737;51.480;11.962;2023-12-20T01:48:25;5.40;99.90
13336;DHT22;6737;51.480;11.962;2023-12-20T01:50:51;5.40;99.90
13336;DHT22;6737;51.480;11.962;2023-12-20T01:53:20;5.40;99.90
13336;DHT22;6737;51.480;11.962;2023-12-20T01:55:47;5.40;99.90
13336;DHT22;6737;51.480;11.962;2023-12-20T01:58:14;5.40;99.90
13336;DHT22;6737;51.480;11.962;2023-12-20T02:00:41;5.40;99.90
13336;DHT22;6737;51.480;11.962;2023-12-20T02:03:06;5.40;99.90
13336;DHT22;6737;51.480;11.962;2023-12-20T02:05:34;5.40;99.90
13336;DHT22;6737;51.480;11.962;2023-12-20T02:08:01;5.40;99.90
13336;DHT22;6737;51.480;11.962;2023-12-20T02:10:27;5.40;99.90
13336;DHT22;6737;51.480;11.962;2023-12-20T02:12:53;5.40;99.90
13336;DHT22;6737;51.480;11.962;2023-12-20T02:15:19;5.40;99.90
13336;DHT22;6737;51.480;11.962;2023-12-20T02:17:47;5.40;99.90
13336;DHT22;6737;51.480;11.962;2023-12-20T02:20:14;5.40;99.90
13336;DHT22;6737;51.480;11.962;2023-12-20T02:22:39;5.50;99.90
13336;DHT22;6737;51.480;11.962;2023-12-20T02:25:05;5.50;99.90
13336;DHT22;6737;51.480;11.962;2023-12-20T02:27:32;5.50;99.90
13336;DHT22;6737;51.480;11.962;2023-12-20T02:29:58;5.50;99.90
13336;DHT22;6737;51.480;11.962;2023-12-20T02:32:24;5.50;99.90
13336;DHT22;6737;51.480;11.962;2023-12-20T02:34:54;5.50;99.90
13336;DHT22;6737;51.480;11.962;2023-12-20T02:37:20;5.50;99.90
13336;DHT22;6737;51.480;11.962;2023-12-20T02:39:46;5.50;99.90
13336;DHT22;6737;51.480;11.962;2023-12-20T02:42:11;5.50;99.90
13336;DHT22;6737;51.480;11.962;2023-12-20T02:44:37;5.50;99.90
13336;DHT22;6737;51.480;11.962;2023-12-20T02:47:03;5.50;99.90
13336;DHT22;6737;51.480;11.962;2023-12-20T02:49:29;5.50;99.90
13336;DHT22;6737;51.480;11.962;2023-12-20T02:51:54;5.50;99.90
13336;DHT22;6737;51.480;11.962;2023-12-20T02:54:20;5.50;99.90
13336;DHT22;6737;51.480;11.962;2023-12-20T02:56:46;5.60;99.90
13336;DHT22;6737;51.480;11.962;2023-12-20T02:59:12;5.60;99.90
13336;DHT22;6737;51.480;11.962;2023-12-20T03:01:42;5.60;99.90
13336;DHT22;6737;51.480;11.962;2023-12-20T03:04:09;5.60;99.90
13336;DHT22;6737;51.480;11.962;2023-12-20T03:06:34;5.60;99.90
13336;DHT22;6737;51.480;11.962;2023-12-20T03:09:00;5.60;99.90
13336;DHT22;6737;51.480;11.962;2023-12-20T03:11:29;5.60;99.90
13336;DHT22;6737;51.480;11.962;2023-12-20T03:13:55;5.60;99.90
13336;DHT22;6737;51.480;11.962;2023-12-20T03:16:21;5.60;99.90
13336;DHT22;6737;51.480;11.962;2023-12-20T03:18:47;5.60;99.90
13336;DHT22;6737;51.480;11.962;2023-12-20T03:21:13;5.60;99.90
13336;DHT22;6737;51.480;11.962;2023-12-20T03:23:40;5.60;99.90
13336;DHT22;6737;51.480;11.962;2023-12-20T03:26:09;5.60;99.90
13336;DHT22;6737;51.480;11.962;2023-12-20T03:28:36;5.60;99.90
13336;DHT22;6737;51.480;11.962;2023-12-20T03:31:02;5.70;99.90
13336;DHT22;6737;51.480;11.962;2023-12-20T03:33:29;5.60;99.90
13336;DHT22;6737;51.480;11.962;2023-12-20T03:35:55;5.60;99.90
13336;DHT22;6737;51.480;11.962;2023-12-20T03:38:22;5.70;99.90
13336;DHT22;6737;51.480;11.962;2023-12-20T03:40:50;5.60;99.90
13336;DHT22;6737;51.480;11.962;2023-12-20T03:43:15;5.60;99.90
13336;DHT22;6737;51.480;11.962;2023-12-20T03:45:42;5.70;99.90
13336;DHT22;6737;51.480;11.962;2023-12-20T03:48:08;5.70;99.90
13336;DHT22;6737;51.480;11.962;2023-12-20T03:50:34;5.70;99.90
13336;DHT22;6737;51.480;11.962;2023-12-20T03:53:01;5.70;99.90
13336;DHT22;6737;51.480;11.962;2023-12-20T03:55:26;5.70;99.90
13336;DHT22;6737;51.480;11.962;2023-12-20T03:57:52;5.70;99.90
13336;DHT22;6737;51.480;11.962;2023-12-20T04:00:18;5.70;99.90
13336;DHT22;6737;51.480;11.962;2023-12-20T04:02:44;5.70;99.90
13336;DHT22;6737;51.480;11.962;2023-12-20T04:05:10;5.80;99.90
13336;DHT22;6737;51.480;11.962;2023-12-20T04:07:36;5.80;99.90
13336;DHT22;6737;51.480;11.962;2023-12-20T04:10:02;5.80;99.90
13336;DHT22;6737;51.480;11.962;2023-12-20T04:12:29;5.80;99.90
13336;DHT22;6737;51.480;11.962;2023-12-20T04:14:55;5.80;99.90
13336;DHT22;6737;51.480;11.962;2023-12-20T04:17:21;5.80;99.90
13336;DHT22;6737;51.480;11.962;2023-12-20T04:19:50;5.80;99.90
13336;DHT22;6737;51.480;11.962;2023-12-20T04:22:20;5.80;99.90
13336;DHT22;6737;51.480;11.962;2023-12-20T04:24:45;5.80;99.90
13336;DHT22;6737;51.480;11.962;2023-12-20T04:27:11;5.80;99.90
13336;DHT22;6737;51.480;11.962;2023-12-20T04:29:37;5.80;99.90
13336;DHT22;6737;51.480;11.962;2023-12-20T04:32:04;5.80;99.90
13336;DHT22;6737;51.480;11.962;2023-12-20T04:34:30;5.80;99.90
13336;DHT22;6737;51.480;11.962;2023-12-20T04:36:56;5.80;99.90
13336;DHT22;6737;51.480;11.962;2023-12-20T04:39:21;5.70;99.90
13336;DHT22;6737;51.480;11.962;2023-12-20T04:41:47;5.80;99.90
13336;DHT22;6737;51.480;11.962;2023-12-20T04:44:13;5.70;99.90
13336;DHT22;6737;51.480;11.962;2023-12-20T04:46:39;5.70;99.90
13336;DHT22;6737;51.480;11.962;2023-12-20T04:49:05;5.80;99.90
13336;DHT22;6737;51.480;11.962;2023-12-20T04:51:34;5.80;99.90
13336;DHT22;6737;51.480;11.962;2023-12-20T04:54:00;5.90;99.90
13336;DHT22;6737;51.480;11.962;2023-12-20T04:56:26;5.90;99.90
13336;DHT22;6737;51.480;11.962;2023-12-20T04:58:52;5.90;99.90
13336;DHT22;6737;51.480;11.962;2023-12-20T05:01:18;5.90;99.90
13336;DHT22;6737;51.480;11.962;2023-12-20T05:03:43;5.80;99.90
13336;DHT22;6737;51.480;11.962;2023-12-20T05:06:10;5.80;99.90
13336;DHT22;6737;51.480;11.962;2023-12-20T05:08:35;5.80;99.90
13336;DHT22;6737;51.480;11.962;2023-12-20T05:11:01;5.80;99.90
13336;DHT22;6737;51.480;11.962;2023-12-20T05:13:27;5.70;99.90
13336;DHT22;6737;51.480;11.962;2023-12-20T05:15:53;5.70;99.90
13336;DHT22;6737;51.480;11.962;2023-12-20T05:18:20;5.70;99.90
13336;DHT22;6737;51.480;11.962;2023-12-20T05:20:46;5.70;99.90
13336;DHT22;6737;51.480;11.962;2023-12-20T05:23:12;5.70;99.90
13336;DHT22;6737;51.480;11.962;2023-12-20T05:25:39;5.70;99.90
13336;DHT22;6737;51.480;11.962;2023-12-20T05:28:04;5.70;99.90
13336;DHT22;6737;51.480;11.962;2023-12-20T05:30:31;5.70;99.90
13336;DHT22;6737;51.480;11.962;2023-12-20T05:32:56;5.70;99.90
13336;DHT22;6737;51.480;11.962;2023-12-20T05:35:22;5.70;99.90
13336;DHT22;6737;51.480;11.962;2023-12-20T05:37:49;5.70;99.90
13336;DHT22;6737;51.480;11.962;2023-12-20T05:40:16;5.70;99.90
13336;DHT22;6737;51.480;11.962;2023-12-20T05:42:41;5.60;99.90
13336;DHT22;6737;51.480;11.962;2023-12-20T05:45:09;5.50;99.90
13336;DHT22;6737;51.480;11.962;2023-12-20T05:47:35;5.50;99.90
13336;DHT22;6737;51.480;11.962;2023-12-20T05:50:01;5.50;99.90
13336;DHT22;6737;51.480;11.962;2023-12-20T05:52:26;5.50;99.90
13336;DHT22;6737;51.480;11.962;2023-12-20T05:54:52;5.50;99.90
13336;DHT22;6737;51.480;11.962;2023-12-20T05:57:18;5.50;99.90
13336;DHT22;6737;51.480;11.962;2023-12-20T05:59:44;5.50;99.90
13336;DHT22;6737;51.480;11.962;2023-12-20T06:02:10;5.50;99.90
13336;DHT22;6737;51.480;11.962;2023-12-20T06:04:36;5.50;99.90
13336;DHT22;6737;51.480;11.962;2023-12-20T06:07:02;5.50;99.90
13336;DHT22;6737;51.480;11.962;2023-12-20T06:09:29;5.40;99.90
13336;DHT22;6737;51.480;11.962;2023-12-20T06:11:55;5.30;99.90
13336;DHT22;6737;51.480;11.962;2023-12-20T06:14:21;5.30;99.90
13336;DHT22;6737;51.480;11.962;2023-12-20T06:16:47;5.30;99.90
13336;DHT22;6737;51.480;11.962;2023-12-20T06:19:12;5.30;99.90
13336;DHT22;6737;51.480;11.962;2023-12-20T06:21:38;5.20;99.90
13336;DHT22;6737;51.480;11.962;2023-12-20T06:24:04;5.20;99.90
13336;DHT22;6737;51.480;11.962;2023-12-20T06:26:30;5.20;99.90
13336;DHT22;6737;51.480;11.962;2023-12-20T06:28:56;5.20;99.90
13336;DHT22;6737;51.480;11.962;2023-12-20T06:31:22;5.20;99.90
13336;DHT22;6737;51.480;11.962;2023-12-20T06:33:48;5.20;99.90
13336;DHT22;6737;51.480;11.962;2023-12-20T06:36:23;5.20;99.90
13336;DHT22;6737;51.480;11.962;2023-12-20T06:38:50;5.10;99.90
13336;DHT22;6737;51.480;11.962;2023-12-20T06:41:16;5.10;99.90
13336;DHT22;6737;51.480;11.962;2023-12-20T06:43:42;5.00;99.90
13336;DHT22;6737;51.480;11.962;2023-12-20T06:46:08;5.00;99.90
13336;DHT22;6737;51.480;11.962;2023-12-20T06:48:34;5.00;99.90
13336;DHT22;6737;51.480;11.962;2023-12-20T06:51:01;5.00;99.90
13336;DHT22;6737;51.480;11.962;2023-12-20T06:53:30;5.00;99.90
13336;DHT22;6737;51.480;11.962;2023-12-20T06:55:56;5.00;99.90
13336;DHT22;6737;51.480;11.962;2023-12-20T06:58:23;5.00;99.90
13336;DHT22;6737;51.480;11.962;2023-12-20T07:00:49;5.00;99.90
13336;DHT22;6737;51.480;11.962;2023-12-20T07:03:15;5.00;99.90
13336;DHT22;6737;51.480;11.962;2023-12-20T07:05:40;5.00;99.90
13336;DHT22;6737;51.480;11.962;2023-12-20T07:08:06;5.00;99.90
13336;DHT22;6737;51.480;11.962;2023-12-20T07:10:33;5.00;99.90
13336;DHT22;6737;51.480;11.962;2023-12-20T07:12:58;5.00;99.90
13336;DHT22;6737;51.480;11.962;2023-12-20T07:15:24;5.00;99.90
13336;DHT22;6737;51.480;11.962;2023-12-20T07:17:50;5.10;99.90
13336;DHT22;6737;51.480;11.962;2023-12-20T07:20:16;5.10;99.90
13336;DHT22;6737;51.480;11.962;2023-12-20T07:22:42;5.10;99.90
13336;DHT22;6737;51.480;11.962;2023-12-20T07:25:08;5.20;99.90
13336;DHT22;6737;51.480;11.962;2023-12-20T07:27:34;5.20;99.90
13336;DHT22;6737;51.480;11.962;2023-12-20T07:30:00;5.30;99.90
13336;DHT22;6737;51.480;11.962;2023-12-20T07:32:26;5.30;99.90
13336;DHT22;6737;51.480;11.962;2023-12-20T07:34:52;5.30;99.90
13336;DHT22;6737;51.480;11.962;2023-12-20T07:37:19;5.40;99.90
13336;DHT22;6737;51.480;11.962;2023-12-20T07:39:45;5.40;99.90
13336;DHT22;6737;51.480;11.962;2023-12-20T07:42:11;5.40;99.90
13336;DHT22;6737;51.480;11.962;2023-12-20T07:44:37;5.50;99.90
13336;DHT22;6737;51.480;11.962;2023-12-20T07:47:02;5.50;99.90
13336;DHT22;6737;51.480;11.962;2023-12-20T07:49:29;5.50;99.90
13336;DHT22;6737;51.480;11.962;2023-12-20T07:51:56;5.50;99.90
13336;DHT22;6737;51.480;11.962;2023-12-20T07:54:21;5.50;99.90
13336;DHT22;6737;51.480;11.962;2023-12-20T07:56:48;5.50;99.90
13336;DHT22;6737;51.480;11.962;2023-12-20T07:59:14;5.50;99.90
13336;DHT22;6737;51.480;11.962;2023-12-20T08:01:40;5.50;99.90
13336;DHT22;6737;51.480;11.962;2023-12-20T08:04:06;5.50;99.90
13336;DHT22;6737;51.480;11.962;2023-12-20T08:06:32;5.50;99.90
13336;DHT22;6737;51.480;11.962;2023-12-20T08:08:58;5.40;99.90
13336;DHT22;6737;51.480;11.962;2023-12-20T08:11:24;5.40;99.90
13336;DHT22;6737;51.480;11.962;2023-12-20T08:13:50;5.40;99.90
13336;DHT22;6737;51.480;11.962;2023-12-20T08:16:15;5.40;99.90
13336;DHT22;6737;51.480;11.962;2023-12-20T08:18:43;5.30;99.90
13336;DHT22;6737;51.480;11.962;2023-12-20T08:21:09;5.30;99.90
13336;DHT22;6737;51.480;11.962;2023-12-20T08:23:35;5.30;99.90
13336;DHT22;6737;51.480;11.962;2023-12-20T08:26:20;5.20;99.90
13336;DHT22;6737;51.480;11.962;2023-12-20T08:28:47;5.20;99.90
13336;DHT22;6737;51.480;11.962;2023-12-20T08:31:19;5.20;99.90
13336;DHT22;6737;51.480;11.962;2023-12-20T08:33:48;5.20;99.90
13336;DHT22;6737;51.480;11.962;2023-12-20T08:36:14;5.20;99.90
13336;DHT22;6737;51.480;11.962;2023-12-20T08:38:40;5.20;99.90
13336;DHT22;6737;51.480;11.962;2023-12-20T08:41:07;5.30;99.90
13336;DHT22;6737;51.480;11.962;2023-12-20T08:43:34;5.40;99.90
13336;DHT22;6737;51.480;11.962;2023-12-20T08:46:01;5.50;99.90
13336;DHT22;6737;51.480;11.962;2023-12-20T08:48:28;5.60;99.90
13336;DHT22;6737;51.480;11.962;2023-12-20T08:50:54;5.60;99.90
13336;DHT22;6737;51.480;11.962;2023-12-20T08:53:20;5.60;99.90
13336;DHT22;6737;51.480;11.962;2023-12-20T08:55:46;5.70;99.90
13336;DHT22;6737;51.480;11.962;2023-12-20T08:58:12;5.70;99.90
13336;DHT22;6737;51.480;11.962;2023-12-20T09:00:38;5.70;99.90
13336;DHT22;6737;51.480;11.962;2023-12-20T09:03:04;5.70;99.90
13336;DHT22;6737;51.480;11.962;2023-12-20T09:05:30;5.70;99.90
13336;DHT22;6737;51.480;11.962;2023-12-20T09:07:56;5.80;99.90
13336;DHT22;6737;51.480;11.962;2023-12-20T09:10:22;5.80;99.90
13336;DHT22;6737;51.480;11.962;2023-12-20T09:12:51;5.90;99.90
13336;DHT22;6737;51.480;11.962;2023-12-20T09:15:23;5.90;99.90
13336;DHT22;6737;51.480;11.962;2023-12-20T09:17:49;6.00;99.90
13336;DHT22;6737;51.480;11.962;2023-12-20T09:20:15;6.10;99.90
13336;DHT22;6737;51.480;11.962;2023-12-20T09:22:41;6.20;99.90
13336;DHT22;6737;51.480;11.962;2023-12-20T09:25:09;6.20;99.90
13336;DHT22;6737;51.480;11.962;2023-12-20T09:27:36;6.30;99.90
13336;DHT22;6737;51.480;11.962;2023-12-20T09:30:01;6.40;99.90
13336;DHT22;6737;51.480;11.962;2023-12-20T09:32:31;6.50;99.90
13336;DHT22;6737;51.480;11.962;2023-12-20T09:34:57;6.60;99.90
13336;DHT22;6737;51.480;11.962;2023-12-20T09:37:27;6.70;99.90
13336;DHT22;6737;51.480;11.962;2023-12-20T09:39:54;6.60;99.90
13336;DHT22;6737;51.480;11.962;2023-12-20T09:42:44;6.60;99.90
13336;DHT22;6737;51.480;11.962;2023-12-20T09:45:15;6.60;99.90
13336;DHT22;6737;51.480;11.962;2023-12-20T09:47:43;6.60;99.90
13336;DHT22;6737;51.480;11.962;2023-12-20T09:50:11;6.50;99.90
13336;DHT22;6737;51.480;11.962;2023-12-20T09:52:39;6.50;99.90
13336;DHT22;6737;51.480;11.962;2023-12-20T09:55:07;6.50;99.90
13336;DHT22;6737;51.480;11.962;2023-12-20T09:57:34;6.50;99.90
13336;DHT22;6737;51.480;11.962;2023-12-20T10:00:00;6.50;99.90
13336;DHT22;6737;51.480;11.962;2023-12-20T10:02:26;6.50;99.90
13336;DHT22;6737;51.480;11.962;2023-12-20T10:04:54;6.50;99.90
13336;DHT22;6737;51.480;11.962;2023-12-20T10:07:21;6.50;99.90
13336;DHT22;6737;51.480;11.962;2023-12-20T10:09:48;6.50;99.90
13336;DHT22;6737;51.480;11.962;2023-12-20T10:12:14;6.50;99.90
13336;DHT22;6737;51.480;11.962;2023-12-20T10:14:40;6.60;99.90
13336;DHT22;6737;51.480;11.962;2023-12-20T10:17:06;6.60;99.90
13336;DHT22;6737;51.480;11.962;2023-12-20T10:19:33;6.60;99.90
13336;DHT22;6737;51.480;11.962;2023-12-20T10:22:05;6.60;99.90
13336;DHT22;6737;51.480;11.962;2023-12-20T10:24:31;6.60;99.90
13336;DHT22;6737;51.480;11.962;2023-12-20T10:27:04;6.60;99.90
13336;DHT22;6737;51.480;11.962;2023-12-20T10:29:37;6.60;99.90
13336;DHT22;6737;51.480;11.962;2023-12-20T10:32:24;6.60;99.90
13336;DHT22;6737;51.480;11.962;2023-12-20T10:34:51;6.70;99.90
13336;DHT22;6737;51.480;11.962;2023-12-20T10:37:17;6.70;99.90
13336;DHT22;6737;51.480;11.962;2023-12-20T10:39:43;6.80;99.90
13336;DHT22;6737;51.480;11.962;2023-12-20T10:42:13;6.80;99.90
13336;DHT22;6737;51.480;11.962;2023-12-20T10:44:40;6.90;99.90
13336;DHT22;6737;51.480;11.962;2023-12-20T10:47:06;6.90;99.90
13336;DHT22;6737;51.480;11.962;2023-12-20T10:49:36;7.00;99.90
13336;DHT22;6737;51.480;11.962;2023-12-20T10:52:04;7.00;99.90
13336;DHT22;6737;51.480;11.962;2023-12-20T10:54:31;7.10;99.90
13336;DHT22;6737;51.480;11.962;2023-12-20T10:56:58;7.20;99.90
13336;DHT22;6737;51.480;11.962;2023-12-20T10:59:24;7.30;99.90
13336;DHT22;6737;51.480;11.962;2023-12-20T11:01:50;7.30;99.90
13336;DHT22;6737;51.480;11.962;2023-12-20T11:04:23;7.30;99.90
13336;DHT22;6737;51.480;11.962;2023-12-20T11:06:56;7.20;99.90
13336;DHT22;6737;51.480;11.962;2023-12-20T11:09:31;7.20;99.90
13336;DHT22;6737;51.480;11.962;2023-12-20T11:17:09;7.20;99.90
13336;DHT22;6737;51.480;11.962;2023-12-20T11:22:25;7.20;99.90
13336;DHT22;6737;51.480;11.962;2023-12-20T11:24:52;7.20;99.90
13336;DHT22;6737;51.480;11.962;2023-12-20T11:27:19;7.20;99.90
13336;DHT22;6737;51.480;11.962;2023-12-20T11:29:53;7.20;99.90
13336;DHT22;6737;51.480;11.962;2023-12-20T11:34:56;7.20;99.90
13336;DHT22;6737;51.480;11.962;2023-12-20T11:37:22;7.20;99.90
13336;DHT22;6737;51.480;11.962;2023-12-20T11:40:21;7.30;99.90
13336;DHT22;6737;51.480;11.962;2023-12-20T11:42:51;7.20;99.90
13336;DHT22;6737;51.480;11.962;2023-12-20T11:45:19;7.20;99.90
13336;DHT22;6737;51.480;11.962;2023-12-20T11:47:48;7.30;99.90
13336;DHT22;6737;51.480;11.962;2023-12-20T11:50:21;7.30;99.90
13336;DHT22;6737;51.480;11.962;2023-12-20T11:52:48;7.20;99.90
13336;DHT22;6737;51.480;11.962;2023-12-20T11:55:14;7.20;99.90
13336;DHT22;6737;51.480;11.962;2023-12-20T11:57:41;7.10;99.90
13336;DHT22;6737;51.480;11.962;2023-12-20T12:00:07;7.10;99.90
13336;DHT22;6737;51.480;11.962;2023-12-20T12:02:34;7.00;99.90
13336;DHT22;6737;51.480;11.962;2023-12-20T12:05:00;7.10;99.90
13336;DHT22;6737;51.480;11.962;2023-12-20T12:07:26;7.10;99.90
13336;DHT22;6737;51.480;11.962;2023-12-20T12:09:52;7.10;99.90
13336;DHT22;6737;51.480;11.962;2023-12-20T12:12:19;7.10;99.90
13336;DHT22;6737;51.480;11.962;2023-12-20T12:14:45;7.20;99.90
13336;DHT22;6737;51.480;11.962;2023-12-20T12:17:14;7.20;99.90
13336;DHT22;6737;51.480;11.962;2023-12-20T12:19:42;7.20;99.90
13336;DHT22;6737;51.480;11.962;2023-12-20T12:22:09;7.10;99.90
13336;DHT22;6737;51.480;11.962;2023-12-20T12:24:43;7.20;99.90
13336;DHT22;6737;51.480;11.962;2023-12-20T12:27:10;7.20;99.90
13336;DHT22;6737;51.480;11.962;2023-12-20T12:29:37;7.30;99.90
13336;DHT22;6737;51.480;11.962;2023-12-20T12:32:09;7.30;99.90
13336;DHT22;6737;51.480;11.962;2023-12-20T12:34:35;7.30;99.90
13336;DHT22;6737;51.480;11.962;2023-12-20T12:37:06;7.30;99.90
13336;DHT22;6737;51.480;11.962;2023-12-20T12:39:32;7.40;99.90
13336;DHT22;6737;51.480;11.962;2023-12-20T12:41:58;7.40;99.90
13336;DHT22;6737;51.480;11.962;2023-12-20T12:44:24;7.40;99.90
13336;DHT22;6737;51.480;11.962;2023-12-20T12:46:51;7.40;99.90
13336;DHT22;6737;51.480;11.962;2023-12-20T12:49:22;7.40;99.90
13336;DHT22;6737;51.480;11.962;2023-12-20T12:51:48;7.40;99.90
13336;DHT22;6737;51.480;11.962;2023-12-20T12:54:13;7.40;99.90
13336;DHT22;6737;51.480;11.962;2023-12-20T12:56:42;7.40;99.90
13336;DHT22;6737;51.480;11.962;2023-12-20T12:59:08;7.40;99.90
13336;DHT22;6737;51.480;11.962;2023-12-20T13:01:34;7.30;99.90
13336;DHT22;6737;51.480;11.962;2023-12-20T13:04:00;7.40;99.90
13336;DHT22;6737;51.480;11.962;2023-12-20T13:06:29;7.40;99.90
13336;DHT22;6737;51.480;11.962;2023-12-20T13:08:55;7.40;99.90
13336;DHT22;6737;51.480;11.962;2023-12-20T13:11:21;7.40;99.90
13336;DHT22;6737;51.480;11.962;2023-12-20T13:13:47;7.40;99.90
13336;DHT22;6737;51.480;11.962;2023-12-20T13:16:12;7.40;99.90
13336;DHT22;6737;51.480;11.962;2023-12-20T13:18:39;7.40;99.90
13336;DHT22;6737;51.480;11.962;2023-12-20T13:21:08;7.40;99.90
13336;DHT22;6737;51.480;11.962;2023-12-20T13:23:34;7.40;99.90
13336;DHT22;6737;51.480;11.962;2023-12-20T13:26:00;7.40;99.90
13336;DHT22;6737;51.480;11.962;2023-12-20T13:28:26;7.40;99.90
13336;DHT22;6737;51.480;11.962;2023-12-20T13:30:52;7.40;99.90
13336;DHT22;6737;51.480;11.962;2023-12-20T13:33:18;7.40;99.90
13336;DHT22;6737;51.480;11.962;2023-12-20T13:35:44;7.40;99.90
13336;DHT22;6737;51.480;11.962;2023-12-20T13:38:10;7.40;99.90
13336;DHT22;6737;51.480;11.962;2023-12-20T13:40:38;7.40;99.90
13336;DHT22;6737;51.480;11.962;2023-12-20T13:43:04;7.30;99.90
13336;DHT22;6737;51.480;11.962;2023-12-20T13:45:30;7.30;99.90
13336;DHT22;6737;51.480;11.962;2023-12-20T13:47:56;7.30;99.90
13336;DHT22;6737;51.480;11.962;2023-12-20T13:50:22;7.40;99.90
13336;DHT22;6737;51.480;11.962;2023-12-20T13:52:48;7.30;99.90
13336;DHT22;6737;51.480;11.962;2023-12-20T13:55:14;7.40;99.90
13336;DHT22;6737;51.480;11.962;2023-12-20T13:57:40;7.40;99.90
13336;DHT22;6737;51.480;11.962;2023-12-20T14:00:07;7.40;99.90
13336;DHT22;6737;51.480;11.962;2023-12-20T14:02:41;7.30;99.90
13336;DHT22;6737;51.480;11.962;2023-12-20T14:05:11;7.40;99.90
13336;DHT22;6737;51.480;11.962;2023-12-20T14:07:37;7.30;99.90
13336;DHT22;6737;51.480;11.962;2023-12-20T14:10:03;7.30;99.90
13336;DHT22;6737;51.480;11.962;2023-12-20T14:12:29;7.30;99.90
13336;DHT22;6737;51.480;11.962;2023-12-20T14:14:55;7.30;99.90
13336;DHT22;6737;51.480;11.962;2023-12-20T14:17:22;7.30;99.90
13336;DHT22;6737;51.480;11.962;2023-12-20T14:19:48;7.30;99.90
13336;DHT22;6737;51.480;11.962;2023-12-20T14:22:13;7.30;99.90
13336;DHT22;6737;51.480;11.962;2023-12-20T14:24:42;7.30;99.90
13336;DHT22;6737;51.480;11.962;2023-12-20T14:27:08;7.30;99.90
13336;DHT22;6737;51.480;11.962;2023-12-20T14:29:39;7.30;99.90
13336;DHT22;6737;51.480;11.962;2023-12-20T14:32:05;7.30;99.90
13336;DHT22;6737;51.480;11.962;2023-12-20T14:34:32;7.20;99.90
13336;DHT22;6737;51.480;11.962;2023-12-20T14:36:57;7.20;99.90
13336;DHT22;6737;51.480;11.962;2023-12-20T14:39:23;7.20;99.90
13336;DHT22;6737;51.480;11.962;2023-12-20T14:41:49;7.20;99.90
13336;DHT22;6737;51.480;11.962;2023-12-20T14:44:15;7.10;99.90
13336;DHT22;6737;51.480;11.962;2023-12-20T14:46:42;7.20;99.90
13336;DHT22;6737;51.480;11.962;2023-12-20T14:49:08;7.20;99.90
13336;DHT22;6737;51.480;11.962;2023-12-20T14:51:34;7.10;99.90
13336;DHT22;6737;51.480;11.962;2023-12-20T14:54:01;7.10;99.90
13336;DHT22;6737;51.480;11.962;2023-12-20T14:56:27;7.10;99.90
13336;DHT22;6737;51.480;11.962;2023-12-20T14:58:53;7.10;99.90
13336;DHT22;6737;51.480;11.962;2023-12-20T15:01:19;7.10;99.90
13336;DHT22;6737;51.480;11.962;2023-12-20T15:03:49;7.00;99.90
13336;DHT22;6737;51.480;11.962;2023-12-20T15:06:15;7.00;99.90
13336;DHT22;6737;51.480;11.962;2023-12-20T15:08:41;6.90;99.90
13336;DHT22;6737;51.480;11.962;2023-12-20T15:11:07;7.00;99.90
13336;DHT22;6737;51.480;11.962;2023-12-20T15:13:32;6.90;99.90
13336;DHT22;6737;51.480;11.962;2023-12-20T15:15:59;6.90;99.90
13336;DHT22;6737;51.480;11.962;2023-12-20T15:18:24;6.90;99.90
13336;DHT22;6737;51.480;11.962;2023-12-20T15:20:50;6.90;99.90
13336;DHT22;6737;51.480;11.962;2023-12-20T15:23:17;6.90;99.90
13336;DHT22;6737;51.480;11.962;2023-12-20T15:25:43;6.80;99.90
13336;DHT22;6737;51.480;11.962;2023-12-20T15:28:09;6.80;99.90
13336;DHT22;6737;51.480;11.962;2023-12-20T15:30:35;6.80;99.90
13336;DHT22;6737;51.480;11.962;2023-12-20T15:33:02;6.80;99.90
13336;DHT22;6737;51.480;11.962;2023-12-20T15:35:29;6.90;99.90
13336;DHT22;6737;51.480;11.962;2023-12-20T15:37:57;6.80;99.90
13336;DHT22;6737;51.480;11.962;2023-12-20T15:40:24;6.80;99.90
13336;DHT22;6737;51.480;11.962;2023-12-20T15:42:50;6.80;99.90
13336;DHT22;6737;51.480;11.962;2023-12-20T15:45:15;6.80;99.90
13336;DHT22;6737;51.480;11.962;2023-12-20T15:47:41;6.80;99.90
13336;DHT22;6737;51.480;11.962;2023-12-20T15:50:07;6.80;99.90
13336;DHT22;6737;51.480;11.962;2023-12-20T15:52:33;6.80;99.90